sensor_id;sensor_type;location;lat;lon;timestamp;P1;durP1;ratioP1;P2;durP2;ratioP2
13592;SDS011;6867;50.998;4.250;2022-08-04T00:01:59;9.40;;;3.38;;
13592;SDS011;6867;50.998;4.250;2022-08-04T00:04:31;6.88;;;4.28;;
13592;SDS011;6867;50.998;4.250;2022-08-04T00:07:07;5.43;;;3.35;;
13592;SDS011;6867;50.998;4.250;2022-08-04T00:09:43;5.95;;;3.35;;
13592;SDS011;6867;50.998;4.250;2022-08-04T00:12:16;6.20;;;3.50;;
13592;SDS011;6867;50.998;4.250;2022-08-04T00:14:46;8.18;;;3.10;;
13592;SDS011;6867;50.998;4.250;2022-08-04T00:17:14;4.88;;;2.58;;
13592;SDS011;6867;50.998;4.250;2022-08-04T00:19:47;6.57;;;3.33;;
13592;SDS011;6867;50.998;4.250;2022-08-04T00:22:16;6.60;;;3.20;;
13592;SDS011;6867;50.998;4.250;2022-08-04T00:24:47;7.88;;;3.10;;
13592;SDS011;6867;50.998;4.250;2022-08-04T00:27:15;7.50;;;3.40;;
13592;SDS011;6867;50.998;4.250;2022-08-04T00:29:42;8.25;;;3.80;;
13592;SDS011;6867;50.998;4.250;2022-08-04T00:32:10;6.85;;;4.03;;
13592;SDS011;6867;50.998;4.250;2022-08-04T00:34:37;5.90;;;3.60;;
13592;SDS011;6867;50.998;4.250;2022-08-04T00:37:05;7.82;;;4.47;;
13592;SDS011;6867;50.998;4.250;2022-08-04T00:39:32;5.10;;;3.53;;
13592;SDS011;6867;50.998;4.250;2022-08-04T00:48:18;7.50;;;3.42;;
13592;SDS011;6867;50.998;4.250;2022-08-04T00:50:57;4.80;;;3.25;;
13592;SDS011;6867;50.998;4.250;2022-08-04T00:53:35;7.55;;;4.43;;
13592;SDS011;6867;50.998;4.250;2022-08-04T00:56:14;9.32;;;3.47;;
13592;SDS011;6867;50.998;4.250;2022-08-04T00:59:02;5.88;;;3.42;;
13592;SDS011;6867;50.998;4.250;2022-08-04T01:01:45;7.03;;;3.60;;
13592;SDS011;6867;50.998;4.250;2022-08-04T01:04:23;6.78;;;4.47;;
13592;SDS011;6867;50.998;4.250;2022-08-04T01:07:06;4.85;;;3.75;;
13592;SDS011;6867;50.998;4.250;2022-08-04T01:09:48;6.50;;;3.25;;
13592;SDS011;6867;50.998;4.250;2022-08-04T01:12:29;8.00;;;3.80;;
13592;SDS011;6867;50.998;4.250;2022-08-04T01:15:09;6.82;;;3.45;;
13592;SDS011;6867;50.998;4.250;2022-08-04T01:17:53;5.97;;;3.30;;
13592;SDS011;6867;50.998;4.250;2022-08-04T01:20:31;4.38;;;2.92;;
13592;SDS011;6867;50.998;4.250;2022-08-04T01:26:17;7.60;;;3.75;;
13592;SDS011;6867;50.998;4.250;2022-08-04T01:29:07;6.82;;;3.25;;
13592;SDS011;6867;50.998;4.250;2022-08-04T01:31:45;9.73;;;3.92;;
13592;SDS011;6867;50.998;4.250;2022-08-04T01:34:18;8.07;;;3.80;;
13592;SDS011;6867;50.998;4.250;2022-08-04T01:36:49;6.03;;;3.50;;
13592;SDS011;6867;50.998;4.250;2022-08-04T01:39:24;9.52;;;4.00;;
13592;SDS011;6867;50.998;4.250;2022-08-04T01:42:06;6.15;;;3.50;;
13592;SDS011;6867;50.998;4.250;2022-08-04T01:44:36;5.97;;;4.25;;
13592;SDS011;6867;50.998;4.250;2022-08-04T01:47:06;7.10;;;3.88;;
13592;SDS011;6867;50.998;4.250;2022-08-04T01:49:34;6.43;;;3.42;;
13592;SDS011;6867;50.998;4.250;2022-08-04T01:52:04;8.48;;;4.13;;
13592;SDS011;6867;50.998;4.250;2022-08-04T01:54:34;5.93;;;3.50;;
13592;SDS011;6867;50.998;4.250;2022-08-04T01:57:03;9.88;;;4.45;;
13592;SDS011;6867;50.998;4.250;2022-08-04T01:59:30;8.32;;;3.85;;
13592;SDS011;6867;50.998;4.250;2022-08-04T02:02:03;8.90;;;4.47;;
13592;SDS011;6867;50.998;4.250;2022-08-04T02:04:30;5.32;;;4.10;;
13592;SDS011;6867;50.998;4.250;2022-08-04T02:07:07;8.50;;;4.20;;
13592;SDS011;6867;50.998;4.250;2022-08-04T02:09:44;4.32;;;3.85;;
13592;SDS011;6867;50.998;4.250;2022-08-04T02:12:19;8.50;;;3.85;;
13592;SDS011;6867;50.998;4.250;2022-08-04T02:14:55;13.02;;;4.25;;
13592;SDS011;6867;50.998;4.250;2022-08-04T02:17:28;6.63;;;4.78;;
13592;SDS011;6867;50.998;4.250;2022-08-04T02:20:02;6.05;;;4.47;;
13592;SDS011;6867;50.998;4.250;2022-08-04T02:22:33;9.25;;;4.93;;
13592;SDS011;6867;50.998;4.250;2022-08-04T02:25:06;6.28;;;4.05;;
13592;SDS011;6867;50.998;4.250;2022-08-04T02:27:39;10.90;;;4.15;;
13592;SDS011;6867;50.998;4.250;2022-08-04T02:30:19;5.65;;;3.55;;
13592;SDS011;6867;50.998;4.250;2022-08-04T02:32:49;10.20;;;4.18;;
13592;SDS011;6867;50.998;4.250;2022-08-04T02:35:22;7.28;;;3.80;;
13592;SDS011;6867;50.998;4.250;2022-08-04T02:37:54;8.40;;;4.13;;
13592;SDS011;6867;50.998;4.250;2022-08-04T02:40:36;6.45;;;3.72;;
13592;SDS011;6867;50.998;4.250;2022-08-04T02:43:05;6.97;;;4.00;;
13592;SDS011;6867;50.998;4.250;2022-08-04T02:45:35;9.18;;;4.30;;
13592;SDS011;6867;50.998;4.250;2022-08-04T02:48:04;7.05;;;4.25;;
13592;SDS011;6867;50.998;4.250;2022-08-04T02:50:35;8.23;;;4.50;;
13592;SDS011;6867;50.998;4.250;2022-08-04T02:53:04;9.10;;;4.20;;
13592;SDS011;6867;50.998;4.250;2022-08-04T02:55:32;6.53;;;3.78;;
13592;SDS011;6867;50.998;4.250;2022-08-04T02:58:01;6.22;;;3.88;;
13592;SDS011;6867;50.998;4.250;2022-08-04T03:00:28;7.15;;;3.97;;
13592;SDS011;6867;50.998;4.250;2022-08-04T03:02:58;5.63;;;3.50;;
13592;SDS011;6867;50.998;4.250;2022-08-04T03:05:46;10.18;;;3.13;;
13592;SDS011;6867;50.998;4.250;2022-08-04T03:08:29;6.50;;;3.55;;
13592;SDS011;6867;50.998;4.250;2022-08-04T03:23:33;5.28;;;3.53;;
13592;SDS011;6867;50.998;4.250;2022-08-04T03:26:27;8.10;;;4.05;;
13592;SDS011;6867;50.998;4.250;2022-08-04T03:32:04;5.30;;;3.35;;
13592;SDS011;6867;50.998;4.250;2022-08-04T03:35:02;8.63;;;4.35;;
13592;SDS011;6867;50.998;4.250;2022-08-04T03:37:56;4.75;;;3.45;;
13592;SDS011;6867;50.998;4.250;2022-08-04T03:40:54;8.20;;;4.18;;
13592;SDS011;6867;50.998;4.250;2022-08-04T03:43:39;6.10;;;4.15;;
13592;SDS011;6867;50.998;4.250;2022-08-04T03:50:05;9.88;;;3.45;;
13592;SDS011;6867;50.998;4.250;2022-08-04T03:52:52;5.65;;;3.50;;
13592;SDS011;6867;50.998;4.250;2022-08-04T03:55:45;8.60;;;3.30;;
13592;SDS011;6867;50.998;4.250;2022-08-04T04:01:30;4.85;;;3.17;;
13592;SDS011;6867;50.998;4.250;2022-08-04T04:10:28;7.60;;;3.85;;
13592;SDS011;6867;50.998;4.250;2022-08-04T04:15:58;9.52;;;4.25;;
13592;SDS011;6867;50.998;4.250;2022-08-04T04:21:44;5.05;;;3.25;;
13592;SDS011;6867;50.998;4.250;2022-08-04T04:24:30;6.20;;;3.70;;
13592;SDS011;6867;50.998;4.250;2022-08-04T04:27:03;9.05;;;4.35;;
13592;SDS011;6867;50.998;4.250;2022-08-04T04:29:50;9.45;;;3.72;;
13592;SDS011;6867;50.998;4.250;2022-08-04T04:32:29;7.70;;;4.15;;
13592;SDS011;6867;50.998;4.250;2022-08-04T04:35:24;8.88;;;3.83;;
13592;SDS011;6867;50.998;4.250;2022-08-04T04:38:06;8.63;;;4.10;;
13592;SDS011;6867;50.998;4.250;2022-08-04T04:40:58;5.43;;;3.22;;
13592;SDS011;6867;50.998;4.250;2022-08-04T04:43:51;6.15;;;3.88;;
13592;SDS011;6867;50.998;4.250;2022-08-04T04:46:47;5.45;;;3.35;;
13592;SDS011;6867;50.998;4.250;2022-08-04T04:49:24;4.63;;;3.42;;
13592;SDS011;6867;50.998;4.250;2022-08-04T04:51:57;5.80;;;3.75;;
13592;SDS011;6867;50.998;4.250;2022-08-04T04:54:32;9.20;;;3.78;;
13592;SDS011;6867;50.998;4.250;2022-08-04T04:57:06;4.70;;;3.00;;
13592;SDS011;6867;50.998;4.250;2022-08-04T04:59:40;8.93;;;3.33;;
13592;SDS011;6867;50.998;4.250;2022-08-04T05:05:29;7.45;;;3.67;;
13592;SDS011;6867;50.998;4.250;2022-08-04T05:08:16;7.75;;;3.70;;
13592;SDS011;6867;50.998;4.250;2022-08-04T05:11:02;7.55;;;3.53;;
13592;SDS011;6867;50.998;4.250;2022-08-04T05:13:41;6.15;;;3.65;;
13592;SDS011;6867;50.998;4.250;2022-08-04T05:16:13;4.88;;;3.05;;
13592;SDS011;6867;50.998;4.250;2022-08-04T05:18:53;8.55;;;3.40;;
13592;SDS011;6867;50.998;4.250;2022-08-04T05:21:32;6.55;;;3.42;;
13592;SDS011;6867;50.998;4.250;2022-08-04T05:24:05;6.22;;;3.35;;
13592;SDS011;6867;50.998;4.250;2022-08-04T05:26:36;6.60;;;3.22;;
13592;SDS011;6867;50.998;4.250;2022-08-04T05:29:08;5.85;;;3.83;;
13592;SDS011;6867;50.998;4.250;2022-08-04T05:31:38;7.80;;;3.35;;
13592;SDS011;6867;50.998;4.250;2022-08-04T05:34:10;5.65;;;3.10;;
13592;SDS011;6867;50.998;4.250;2022-08-04T05:36:41;7.80;;;3.17;;
13592;SDS011;6867;50.998;4.250;2022-08-04T05:39:14;9.90;;;3.58;;
13592;SDS011;6867;50.998;4.250;2022-08-04T05:41:45;7.65;;;3.40;;
13592;SDS011;6867;50.998;4.250;2022-08-04T05:44:14;6.63;;;3.30;;
13592;SDS011;6867;50.998;4.250;2022-08-04T05:46:43;4.80;;;2.95;;
13592;SDS011;6867;50.998;4.250;2022-08-04T05:49:13;9.30;;;3.28;;
13592;SDS011;6867;50.998;4.250;2022-08-04T05:51:41;7.70;;;3.40;;
13592;SDS011;6867;50.998;4.250;2022-08-04T05:54:11;9.60;;;3.65;;
13592;SDS011;6867;50.998;4.250;2022-08-04T05:56:39;9.90;;;4.03;;
13592;SDS011;6867;50.998;4.250;2022-08-04T05:59:07;11.73;;;4.10;;
13592;SDS011;6867;50.998;4.250;2022-08-04T06:01:36;11.77;;;3.38;;
13592;SDS011;6867;50.998;4.250;2022-08-04T06:04:04;8.43;;;3.97;;
13592;SDS011;6867;50.998;4.250;2022-08-04T06:06:33;5.70;;;3.50;;
13592;SDS011;6867;50.998;4.250;2022-08-04T06:09:00;6.53;;;3.25;;
13592;SDS011;6867;50.998;4.250;2022-08-04T06:11:27;6.47;;;4.13;;
13592;SDS011;6867;50.998;4.250;2022-08-04T06:13:55;6.93;;;3.38;;
13592;SDS011;6867;50.998;4.250;2022-08-04T06:16:24;8.27;;;4.15;;
13592;SDS011;6867;50.998;4.250;2022-08-04T06:18:54;6.88;;;3.58;;
13592;SDS011;6867;50.998;4.250;2022-08-04T06:21:25;8.77;;;4.13;;
13592;SDS011;6867;50.998;4.250;2022-08-04T06:23:55;7.97;;;3.78;;
13592;SDS011;6867;50.998;4.250;2022-08-04T06:26:23;6.90;;;3.80;;
13592;SDS011;6867;50.998;4.250;2022-08-04T06:28:51;8.50;;;4.30;;
13592;SDS011;6867;50.998;4.250;2022-08-04T06:31:19;10.98;;;4.40;;
13592;SDS011;6867;50.998;4.250;2022-08-04T06:34:07;8.05;;;4.07;;
13592;SDS011;6867;50.998;4.250;2022-08-04T06:36:35;10.23;;;4.03;;
13592;SDS011;6867;50.998;4.250;2022-08-04T06:39:06;8.40;;;3.67;;
13592;SDS011;6867;50.998;4.250;2022-08-04T06:41:35;7.38;;;3.88;;
13592;SDS011;6867;50.998;4.250;2022-08-04T06:44:04;10.63;;;4.60;;
13592;SDS011;6867;50.998;4.250;2022-08-04T06:46:33;9.85;;;4.13;;
13592;SDS011;6867;50.998;4.250;2022-08-04T06:49:02;8.57;;;4.22;;
13592;SDS011;6867;50.998;4.250;2022-08-04T06:51:30;11.05;;;4.50;;
13592;SDS011;6867;50.998;4.250;2022-08-04T06:53:59;10.73;;;4.30;;
13592;SDS011;6867;50.998;4.250;2022-08-04T06:56:27;7.97;;;4.30;;
13592;SDS011;6867;50.998;4.250;2022-08-04T06:58:56;11.77;;;5.63;;
13592;SDS011;6867;50.998;4.250;2022-08-04T07:01:24;11.75;;;5.70;;
13592;SDS011;6867;50.998;4.250;2022-08-04T07:03:53;8.40;;;5.18;;
13592;SDS011;6867;50.998;4.250;2022-08-04T07:06:20;11.65;;;6.68;;
13592;SDS011;6867;50.998;4.250;2022-08-04T07:08:48;9.48;;;7.05;;
13592;SDS011;6867;50.998;4.250;2022-08-04T07:11:15;13.90;;;7.93;;
13592;SDS011;6867;50.998;4.250;2022-08-04T07:13:44;11.20;;;6.80;;
13592;SDS011;6867;50.998;4.250;2022-08-04T07:16:12;9.98;;;6.20;;
13592;SDS011;6867;50.998;4.250;2022-08-04T07:18:39;10.43;;;6.65;;
13592;SDS011;6867;50.998;4.250;2022-08-04T07:21:06;11.05;;;6.45;;
13592;SDS011;6867;50.998;4.250;2022-08-04T07:23:33;11.35;;;6.13;;
13592;SDS011;6867;50.998;4.250;2022-08-04T07:26:00;10.20;;;6.68;;
13592;SDS011;6867;50.998;4.250;2022-08-04T07:28:27;7.90;;;5.57;;
13592;SDS011;6867;50.998;4.250;2022-08-04T07:30:57;11.68;;;6.43;;
13592;SDS011;6867;50.998;4.250;2022-08-04T07:33:24;13.55;;;8.07;;
13592;SDS011;6867;50.998;4.250;2022-08-04T07:35:52;11.52;;;7.95;;
13592;SDS011;6867;50.998;4.250;2022-08-04T07:38:20;12.05;;;7.63;;
13592;SDS011;6867;50.998;4.250;2022-08-04T07:40:47;13.07;;;7.93;;
13592;SDS011;6867;50.998;4.250;2022-08-04T07:43:14;13.07;;;7.78;;
13592;SDS011;6867;50.998;4.250;2022-08-04T07:45:42;13.38;;;8.60;;
13592;SDS011;6867;50.998;4.250;2022-08-04T07:48:10;15.65;;;8.27;;
13592;SDS011;6867;50.998;4.250;2022-08-04T07:50:39;14.68;;;8.05;;
13592;SDS011;6867;50.998;4.250;2022-08-04T07:53:08;15.93;;;7.70;;
13592;SDS011;6867;50.998;4.250;2022-08-04T07:55:37;18.20;;;9.75;;
13592;SDS011;6867;50.998;4.250;2022-08-04T07:58:04;15.48;;;9.93;;
13592;SDS011;6867;50.998;4.250;2022-08-04T08:00:31;18.27;;;10.25;;
13592;SDS011;6867;50.998;4.250;2022-08-04T08:02:57;26.20;;;11.32;;
13592;SDS011;6867;50.998;4.250;2022-08-04T08:05:27;26.58;;;14.77;;
13592;SDS011;6867;50.998;4.250;2022-08-04T08:07:54;32.72;;;15.93;;
13592;SDS011;6867;50.998;4.250;2022-08-04T08:10:22;27.42;;;15.90;;
13592;SDS011;6867;50.998;4.250;2022-08-04T08:12:50;37.58;;;17.80;;
13592;SDS011;6867;50.998;4.250;2022-08-04T08:15:17;41.38;;;19.88;;
13592;SDS011;6867;50.998;4.250;2022-08-04T08:17:44;45.08;;;20.75;;
13592;SDS011;6867;50.998;4.250;2022-08-04T08:20:12;43.50;;;20.80;;
13592;SDS011;6867;50.998;4.250;2022-08-04T08:22:40;52.35;;;23.55;;
13592;SDS011;6867;50.998;4.250;2022-08-04T08:25:07;49.58;;;23.55;;
13592;SDS011;6867;50.998;4.250;2022-08-04T08:27:35;56.28;;;25.88;;
13592;SDS011;6867;50.998;4.250;2022-08-04T08:30:03;49.33;;;24.80;;
13592;SDS011;6867;50.998;4.250;2022-08-04T08:32:30;50.90;;;26.33;;
13592;SDS011;6867;50.998;4.250;2022-08-04T08:34:57;53.38;;;26.40;;
13592;SDS011;6867;50.998;4.250;2022-08-04T08:37:25;54.35;;;26.05;;
13592;SDS011;6867;50.998;4.250;2022-08-04T08:40:09;56.10;;;27.27;;
13592;SDS011;6867;50.998;4.250;2022-08-04T08:45:54;50.13;;;24.77;;
13592;SDS011;6867;50.998;4.250;2022-08-04T08:51:48;51.75;;;25.98;;
13592;SDS011;6867;50.998;4.250;2022-08-04T08:54:31;53.03;;;27.48;;
13592;SDS011;6867;50.998;4.250;2022-08-04T08:57:19;50.78;;;25.63;;
13592;SDS011;6867;50.998;4.250;2022-08-04T09:00:00;55.58;;;25.35;;
13592;SDS011;6867;50.998;4.250;2022-08-04T09:05:39;44.90;;;24.52;;
13592;SDS011;6867;50.998;4.250;2022-08-04T09:08:22;42.33;;;23.15;;
13592;SDS011;6867;50.998;4.250;2022-08-04T09:11:08;35.30;;;22.20;;
13592;SDS011;6867;50.998;4.250;2022-08-04T09:13:42;40.22;;;21.35;;
13592;SDS011;6867;50.998;4.250;2022-08-04T09:16:14;43.35;;;21.90;;
13592;SDS011;6867;50.998;4.250;2022-08-04T09:18:46;38.47;;;22.35;;
13592;SDS011;6867;50.998;4.250;2022-08-04T09:21:22;40.92;;;22.27;;
13592;SDS011;6867;50.998;4.250;2022-08-04T09:23:57;38.85;;;20.13;;
13592;SDS011;6867;50.998;4.250;2022-08-04T09:26:30;42.20;;;23.23;;
13592;SDS011;6867;50.998;4.250;2022-08-04T09:29:06;37.53;;;21.20;;
13592;SDS011;6867;50.998;4.250;2022-08-04T09:31:40;40.80;;;21.88;;
13592;SDS011;6867;50.998;4.250;2022-08-04T09:34:12;40.67;;;22.17;;
13592;SDS011;6867;50.998;4.250;2022-08-04T09:36:46;35.95;;;21.77;;
13592;SDS011;6867;50.998;4.250;2022-08-04T09:39:21;37.53;;;22.20;;
13592;SDS011;6867;50.998;4.250;2022-08-04T09:41:58;42.15;;;23.85;;
13592;SDS011;6867;50.998;4.250;2022-08-04T09:44:39;40.83;;;22.25;;
13592;SDS011;6867;50.998;4.250;2022-08-04T09:47:15;40.28;;;22.23;;
13592;SDS011;6867;50.998;4.250;2022-08-04T09:49:46;41.72;;;22.88;;
13592;SDS011;6867;50.998;4.250;2022-08-04T09:52:21;34.40;;;20.42;;
13592;SDS011;6867;50.998;4.250;2022-08-04T09:54:58;34.58;;;20.85;;
13592;SDS011;6867;50.998;4.250;2022-08-04T09:57:45;32.63;;;20.38;;
13592;SDS011;6867;50.998;4.250;2022-08-04T10:00:22;29.45;;;19.02;;
13592;SDS011;6867;50.998;4.250;2022-08-04T10:02:55;28.13;;;18.08;;
13592;SDS011;6867;50.998;4.250;2022-08-04T10:05:26;29.70;;;18.67;;
13592;SDS011;6867;50.998;4.250;2022-08-04T10:08:14;29.27;;;18.25;;
13592;SDS011;6867;50.998;4.250;2022-08-04T10:10:55;29.73;;;17.30;;
13592;SDS011;6867;50.998;4.250;2022-08-04T10:13:33;27.10;;;17.48;;
13592;SDS011;6867;50.998;4.250;2022-08-04T10:16:18;24.38;;;16.67;;
13592;SDS011;6867;50.998;4.250;2022-08-04T10:18:57;29.42;;;15.88;;
13592;SDS011;6867;50.998;4.250;2022-08-04T10:21:30;22.92;;;14.65;;
13592;SDS011;6867;50.998;4.250;2022-08-04T10:24:14;18.85;;;13.75;;
13592;SDS011;6867;50.998;4.250;2022-08-04T10:26:55;19.02;;;13.93;;
13592;SDS011;6867;50.998;4.250;2022-08-04T10:29:25;18.65;;;12.50;;
13592;SDS011;6867;50.998;4.250;2022-08-04T10:31:58;18.42;;;10.65;;
13592;SDS011;6867;50.998;4.250;2022-08-04T10:34:41;13.60;;;10.48;;
13592;SDS011;6867;50.998;4.250;2022-08-04T10:37:12;17.65;;;9.52;;
13592;SDS011;6867;50.998;4.250;2022-08-04T10:39:45;12.45;;;9.32;;
13592;SDS011;6867;50.998;4.250;2022-08-04T10:42:38;11.25;;;8.57;;
13592;SDS011;6867;50.998;4.250;2022-08-04T10:45:15;12.38;;;9.85;;
13592;SDS011;6867;50.998;4.250;2022-08-04T10:50:38;11.07;;;7.95;;
13592;SDS011;6867;50.998;4.250;2022-08-04T10:53:08;12.27;;;7.85;;
13592;SDS011;6867;50.998;4.250;2022-08-04T10:55:44;11.40;;;6.40;;
13592;SDS011;6867;50.998;4.250;2022-08-04T10:58:17;11.18;;;7.00;;
13592;SDS011;6867;50.998;4.250;2022-08-04T11:00:47;7.97;;;5.97;;
13592;SDS011;6867;50.998;4.250;2022-08-04T11:03:20;10.38;;;7.30;;
13592;SDS011;6867;50.998;4.250;2022-08-04T11:05:52;6.68;;;6.07;;
13592;SDS011;6867;50.998;4.250;2022-08-04T11:08:21;7.95;;;6.10;;
13592;SDS011;6867;50.998;4.250;2022-08-04T11:10:54;8.05;;;6.60;;
13592;SDS011;6867;50.998;4.250;2022-08-04T11:13:27;11.25;;;6.22;;
13592;SDS011;6867;50.998;4.250;2022-08-04T11:16:01;7.72;;;5.72;;
13592;SDS011;6867;50.998;4.250;2022-08-04T11:18:33;7.20;;;5.40;;
13592;SDS011;6867;50.998;4.250;2022-08-04T11:21:08;8.27;;;5.78;;
13592;SDS011;6867;50.998;4.250;2022-08-04T11:23:43;8.15;;;5.97;;
13592;SDS011;6867;50.998;4.250;2022-08-04T11:26:18;7.78;;;6.50;;
13592;SDS011;6867;50.998;4.250;2022-08-04T11:28:50;7.40;;;6.32;;
13592;SDS011;6867;50.998;4.250;2022-08-04T11:31:24;8.65;;;6.78;;
13592;SDS011;6867;50.998;4.250;2022-08-04T11:33:59;7.95;;;6.47;;
13592;SDS011;6867;50.998;4.250;2022-08-04T11:36:31;8.30;;;7.15;;
13592;SDS011;6867;50.998;4.250;2022-08-04T11:39:02;7.72;;;6.65;;
13592;SDS011;6867;50.998;4.250;2022-08-04T11:41:46;7.38;;;6.25;;
13592;SDS011;6867;50.998;4.250;2022-08-04T11:44:18;8.52;;;6.60;;
13592;SDS011;6867;50.998;4.250;2022-08-04T11:46:51;6.85;;;5.32;;
13592;SDS011;6867;50.998;4.250;2022-08-04T11:49:28;6.20;;;4.63;;
13592;SDS011;6867;50.998;4.250;2022-08-04T11:51:59;6.47;;;4.22;;
13592;SDS011;6867;50.998;4.250;2022-08-04T11:54:27;6.68;;;4.60;;
13592;SDS011;6867;50.998;4.250;2022-08-04T11:56:57;8.85;;;6.07;;
13592;SDS011;6867;50.998;4.250;2022-08-04T11:59:23;11.38;;;5.78;;
13592;SDS011;6867;50.998;4.250;2022-08-04T12:02:01;8.82;;;6.53;;
13592;SDS011;6867;50.998;4.250;2022-08-04T12:04:49;9.02;;;5.13;;
13592;SDS011;6867;50.998;4.250;2022-08-04T12:07:28;8.35;;;5.50;;
13592;SDS011;6867;50.998;4.250;2022-08-04T12:10:08;8.88;;;6.00;;
13592;SDS011;6867;50.998;4.250;2022-08-04T12:12:41;8.18;;;5.25;;
13592;SDS011;6867;50.998;4.250;2022-08-04T12:15:15;7.68;;;6.10;;
13592;SDS011;6867;50.998;4.250;2022-08-04T12:17:50;8.13;;;5.55;;
13592;SDS011;6867;50.998;4.250;2022-08-04T12:20:26;7.90;;;4.97;;
13592;SDS011;6867;50.998;4.250;2022-08-04T12:22:54;8.40;;;5.38;;
13592;SDS011;6867;50.998;4.250;2022-08-04T12:25:22;7.32;;;5.70;;
13592;SDS011;6867;50.998;4.250;2022-08-04T12:27:56;7.25;;;5.78;;
13592;SDS011;6867;50.998;4.250;2022-08-04T12:30:28;9.10;;;5.75;;
13592;SDS011;6867;50.998;4.250;2022-08-04T12:33:19;6.88;;;5.78;;
13592;SDS011;6867;50.998;4.250;2022-08-04T12:35:54;8.52;;;5.72;;
13592;SDS011;6867;50.998;4.250;2022-08-04T12:38:27;6.68;;;5.50;;
13592;SDS011;6867;50.998;4.250;2022-08-04T12:40:59;7.53;;;5.53;;
13592;SDS011;6867;50.998;4.250;2022-08-04T12:43:28;9.32;;;5.28;;
13592;SDS011;6867;50.998;4.250;2022-08-04T12:46:03;8.93;;;6.22;;
13592;SDS011;6867;50.998;4.250;2022-08-04T12:48:32;7.05;;;5.65;;
13592;SDS011;6867;50.998;4.250;2022-08-04T12:51:03;8.32;;;5.70;;
13592;SDS011;6867;50.998;4.250;2022-08-04T12:53:33;10.32;;;6.15;;
13592;SDS011;6867;50.998;4.250;2022-08-04T12:56:02;7.10;;;5.13;;
13592;SDS011;6867;50.998;4.250;2022-08-04T12:58:32;7.97;;;5.40;;
13592;SDS011;6867;50.998;4.250;2022-08-04T13:01:04;5.72;;;4.85;;
13592;SDS011;6867;50.998;4.250;2022-08-04T13:03:35;9.82;;;5.82;;
13592;SDS011;6867;50.998;4.250;2022-08-04T13:06:06;8.13;;;6.10;;
13592;SDS011;6867;50.998;4.250;2022-08-04T13:08:36;7.18;;;5.30;;
13592;SDS011;6867;50.998;4.250;2022-08-04T13:11:05;8.55;;;6.32;;
13592;SDS011;6867;50.998;4.250;2022-08-04T13:13:34;7.32;;;5.43;;
13592;SDS011;6867;50.998;4.250;2022-08-04T13:16:02;11.40;;;6.90;;
13592;SDS011;6867;50.998;4.250;2022-08-04T13:18:32;8.70;;;5.20;;
13592;SDS011;6867;50.998;4.250;2022-08-04T13:21:12;8.27;;;5.72;;
13592;SDS011;6867;50.998;4.250;2022-08-04T13:23:41;6.90;;;5.75;;
13592;SDS011;6867;50.998;4.250;2022-08-04T13:26:10;11.43;;;4.97;;
13592;SDS011;6867;50.998;4.250;2022-08-04T13:28:40;6.32;;;4.70;;
13592;SDS011;6867;50.998;4.250;2022-08-04T13:31:10;5.90;;;4.47;;
13592;SDS011;6867;50.998;4.250;2022-08-04T13:33:40;7.65;;;4.40;;
13592;SDS011;6867;50.998;4.250;2022-08-04T13:36:09;7.65;;;6.00;;
13592;SDS011;6867;50.998;4.250;2022-08-04T13:38:40;8.30;;;5.38;;
13592;SDS011;6867;50.998;4.250;2022-08-04T13:41:14;9.32;;;5.25;;
13592;SDS011;6867;50.998;4.250;2022-08-04T13:43:45;8.52;;;4.30;;
13592;SDS011;6867;50.998;4.250;2022-08-04T13:46:15;8.57;;;5.18;;
13592;SDS011;6867;50.998;4.250;2022-08-04T13:48:45;8.80;;;5.13;;
13592;SDS011;6867;50.998;4.250;2022-08-04T13:51:16;10.50;;;5.00;;
13592;SDS011;6867;50.998;4.250;2022-08-04T13:53:45;6.78;;;5.00;;
13592;SDS011;6867;50.998;4.250;2022-08-04T13:56:20;4.90;;;4.10;;
13592;SDS011;6867;50.998;4.250;2022-08-04T13:58:48;9.48;;;4.95;;
13592;SDS011;6867;50.998;4.250;2022-08-04T14:01:22;7.95;;;5.75;;
13592;SDS011;6867;50.998;4.250;2022-08-04T14:03:54;7.90;;;5.82;;
13592;SDS011;6867;50.998;4.250;2022-08-04T14:06:27;6.25;;;4.40;;
13592;SDS011;6867;50.998;4.250;2022-08-04T14:08:59;8.13;;;5.25;;
13592;SDS011;6867;50.998;4.250;2022-08-04T14:11:31;6.25;;;5.38;;
13592;SDS011;6867;50.998;4.250;2022-08-04T14:13:59;7.55;;;4.75;;
13592;SDS011;6867;50.998;4.250;2022-08-04T14:16:27;6.50;;;4.43;;
13592;SDS011;6867;50.998;4.250;2022-08-04T14:18:57;7.20;;;4.22;;
13592;SDS011;6867;50.998;4.250;2022-08-04T14:21:27;4.78;;;4.32;;
13592;SDS011;6867;50.998;4.250;2022-08-04T14:23:54;5.40;;;4.90;;
13592;SDS011;6867;50.998;4.250;2022-08-04T14:26:23;6.45;;;5.25;;
13592;SDS011;6867;50.998;4.250;2022-08-04T14:28:52;4.80;;;4.40;;
13592;SDS011;6867;50.998;4.250;2022-08-04T14:31:23;5.75;;;5.25;;
13592;SDS011;6867;50.998;4.250;2022-08-04T14:33:51;5.50;;;5.00;;
13592;SDS011;6867;50.998;4.250;2022-08-04T14:36:19;8.88;;;6.03;;
13592;SDS011;6867;50.998;4.250;2022-08-04T14:38:52;10.02;;;5.47;;
13592;SDS011;6867;50.998;4.250;2022-08-04T14:41:21;5.63;;;5.00;;
13592;SDS011;6867;50.998;4.250;2022-08-04T14:43:50;6.63;;;4.85;;
13592;SDS011;6867;50.998;4.250;2022-08-04T14:46:19;7.35;;;5.28;;
13592;SDS011;6867;50.998;4.250;2022-08-04T14:49:03;5.18;;;4.68;;
13592;SDS011;6867;50.998;4.250;2022-08-04T14:51:36;5.95;;;4.32;;
13592;SDS011;6867;50.998;4.250;2022-08-04T14:54:07;8.75;;;4.40;;
13592;SDS011;6867;50.998;4.250;2022-08-04T14:56:35;7.57;;;5.65;;
13592;SDS011;6867;50.998;4.250;2022-08-04T14:59:03;6.70;;;5.00;;
13592;SDS011;6867;50.998;4.250;2022-08-04T15:01:33;5.78;;;4.90;;
13592;SDS011;6867;50.998;4.250;2022-08-04T15:04:01;5.53;;;4.03;;
13592;SDS011;6867;50.998;4.250;2022-08-04T15:06:29;6.53;;;3.85;;
13592;SDS011;6867;50.998;4.250;2022-08-04T15:08:58;5.18;;;4.03;;
13592;SDS011;6867;50.998;4.250;2022-08-04T15:11:27;2.95;;;2.33;;
13592;SDS011;6867;50.998;4.250;2022-08-04T15:13:55;4.38;;;2.30;;
13592;SDS011;6867;50.998;4.250;2022-08-04T15:16:23;4.13;;;2.35;;
13592;SDS011;6867;50.998;4.250;2022-08-04T15:18:51;4.43;;;2.65;;
13592;SDS011;6867;50.998;4.250;2022-08-04T15:21:19;4.75;;;2.58;;
13592;SDS011;6867;50.998;4.250;2022-08-04T15:23:47;5.15;;;2.33;;
13592;SDS011;6867;50.998;4.250;2022-08-04T15:26:15;4.82;;;2.33;;
13592;SDS011;6867;50.998;4.250;2022-08-04T15:28:48;6.25;;;2.80;;
13592;SDS011;6867;50.998;4.250;2022-08-04T15:31:20;6.15;;;2.72;;
13592;SDS011;6867;50.998;4.250;2022-08-04T15:33:48;5.95;;;3.08;;
13592;SDS011;6867;50.998;4.250;2022-08-04T15:36:20;5.57;;;3.05;;
13592;SDS011;6867;50.998;4.250;2022-08-04T15:38:56;3.00;;;2.20;;
13592;SDS011;6867;50.998;4.250;2022-08-04T15:41:33;7.72;;;2.92;;
13592;SDS011;6867;50.998;4.250;2022-08-04T15:44:15;4.25;;;2.70;;
13592;SDS011;6867;50.998;4.250;2022-08-04T15:47:08;4.20;;;2.58;;
13592;SDS011;6867;50.998;4.250;2022-08-04T15:49:37;5.57;;;2.65;;
13592;SDS011;6867;50.998;4.250;2022-08-04T15:52:05;7.07;;;2.58;;
13592;SDS011;6867;50.998;4.250;2022-08-04T15:54:33;3.75;;;2.38;;
13592;SDS011;6867;50.998;4.250;2022-08-04T15:57:01;6.57;;;2.33;;
13592;SDS011;6867;50.998;4.250;2022-08-04T16:02:34;2.53;;;2.00;;
13592;SDS011;6867;50.998;4.250;2022-08-04T16:08:14;2.33;;;1.95;;
13592;SDS011;6867;50.998;4.250;2022-08-04T16:10:50;3.03;;;1.70;;
13592;SDS011;6867;50.998;4.250;2022-08-04T16:13:19;4.43;;;2.40;;
13592;SDS011;6867;50.998;4.250;2022-08-04T16:15:54;3.13;;;2.10;;
13592;SDS011;6867;50.998;4.250;2022-08-04T16:18:37;4.93;;;2.30;;
13592;SDS011;6867;50.998;4.250;2022-08-04T16:21:16;2.58;;;1.90;;
13592;SDS011;6867;50.998;4.250;2022-08-04T16:23:54;2.40;;;2.08;;
13592;SDS011;6867;50.998;4.250;2022-08-04T16:26:45;2.38;;;1.80;;
13592;SDS011;6867;50.998;4.250;2022-08-04T16:29:23;4.22;;;2.00;;
13592;SDS011;6867;50.998;4.250;2022-08-04T16:34:38;4.47;;;2.22;;
13592;SDS011;6867;50.998;4.250;2022-08-04T16:37:07;2.72;;;2.20;;
13592;SDS011;6867;50.998;4.250;2022-08-04T16:39:36;4.78;;;2.30;;
13592;SDS011;6867;50.998;4.250;2022-08-04T16:45:00;3.75;;;2.53;;